Time;durP1;ratioP1;P1;durP2;ratioP2;P2;SDS_P1;SDS_P2;PMS_P1;PMS_P2;Temp;Humidity;BMP_temperature;BMP_pressure;BME280_temperature;BME280_humidity;BME280_pressure;Samples;Min_cycle;Max_cycle;Signal;HPM_P1;HPM_P2
2022/08/23 00:01:29;;;;;;;6.78;4.13;;;17.40;91.10;;;;;;4930301;29;20046;-63
2022/08/23 00:03:57;;;;;;;6.55;4.20;;;17.40;91.20;;;;;;4929143;29;20059;-64
2022/08/23 00:06:23;;;;;;;6.43;4.18;;;17.40;91.20;;;;;;4931663;29;20066;-65
2022/08/23 00:08:51;;;;;;;7.88;4.78;;;17.30;91.30;;;;;;4934405;29;20042;-59
2022/08/23 00:11:35;;;;;;;5.63;4.18;;;17.20;91.50;;;;;;4933977;29;20042;-63
2022/08/23 00:14:07;;;;;;;6.18;4.10;;;17.20;91.50;;;;;;4934041;29;20031;-63
2022/08/23 00:16:34;;;;;;;7.10;4.72;;;17.10;91.60;;;;;;4932624;29;20024;-62
2022/08/23 00:19:00;;;;;;;8.38;4.35;;;17.00;91.80;;;;;;4932885;29;20452;-66
2022/08/23 00:21:28;;;;;;;9.35;5.63;;;17.00;92.00;;;;;;4933475;29;20048;-65
2022/08/23 00:23:54;;;;;;;8.43;4.75;;;17.00;92.40;;;;;;4934607;29;20473;-64
2022/08/23 00:26:20;;;;;;;6.53;4.75;;;16.90;92.40;;;;;;4932787;29;20032;-64
2022/08/23 00:28:47;;;;;;;6.95;4.43;;;16.90;92.60;;;;;;4932334;29;20031;-64
2022/08/23 00:31:13;;;;;;;9.18;4.85;;;16.80;92.60;;;;;;4932184;29;20433;-67
2022/08/23 00:33:38;;;;;;;9.48;4.90;;;16.80;92.70;;;;;;4932478;29;20043;-60
2022/08/23 00:36:04;;;;;;;8.43;5.47;;;16.80;92.90;;;;;;4932860;29;20035;-64
2022/08/23 00:38:30;;;;;;;10.07;4.55;;;16.80;92.90;;;;;;4932443;29;20044;-66
2022/08/23 00:40:55;;;;;;;7.47;4.90;;;16.80;93.10;;;;;;4932792;29;20103;-63
2022/08/23 00:49:15;;;;;;;6.60;4.38;;;16.70;93.10;;;;;;4933209;29;20046;-60
2022/08/23 00:52:23;;;;;;;7.45;4.55;;;16.70;93.10;;;;;;4933099;29;20489;-61
2022/08/23 00:54:52;;;;;;;8.20;4.30;;;16.70;93.10;;;;;;4874029;29;20085;-59
2022/08/23 00:57:19;;;;;;;8.05;5.53;;;16.60;93.20;;;;;;4913675;29;20046;-56
2022/08/23 00:59:45;;;;;;;7.38;4.82;;;16.60;93.40;;;;;;4933058;29;20075;-60
2022/08/23 01:02:12;;;;;;;7.82;4.50;;;16.50;93.60;;;;;;4934151;29;20102;-61
2022/08/23 01:04:43;;;;;;;8.32;4.68;;;16.50;93.70;;;;;;4935906;29;20047;-59
2022/08/23 01:07:15;;;;;;;9.85;5.35;;;16.40;93.80;;;;;;4947940;29;20051;-63
2022/08/23 01:09:42;;;;;;;8.90;4.90;;;16.40;93.90;;;;;;4932580;29;20032;-59
2022/08/23 01:12:15;;;;;;;7.85;5.25;;;16.30;93.90;;;;;;4936731;29;20442;-61
2022/08/23 01:14:58;;;;;;;9.00;5.22;;;16.30;94.20;;;;;;4935518;29;20110;-59
2022/08/23 01:17:29;;;;;;;7.75;5.43;;;16.20;94.20;;;;;;4937076;29;20028;-62
2022/08/23 01:20:03;;;;;;;10.07;6.00;;;16.10;94.30;;;;;;4936046;29;20103;-60
2022/08/23 01:22:40;;;;;;;12.57;5.55;;;16.10;94.60;;;;;;4936316;29;20065;-58
2022/08/23 01:25:09;;;;;;;9.50;5.97;;;16.10;94.70;;;;;;4933214;29;20118;-60
2022/08/23 01:27:37;;;;;;;9.25;5.70;;;16.00;94.80;;;;;;4935613;29;20536;-63
2022/08/23 01:30:06;;;;;;;6.78;5.10;;;16.00;94.80;;;;;;4934704;29;20042;-63
2022/08/23 01:32:44;;;;;;;11.80;5.63;;;15.90;94.80;;;;;;4935201;29;20377;-60
2022/08/23 01:35:11;;;;;;;8.45;5.00;;;15.90;95.00;;;;;;4923652;29;20154;-62
2022/08/23 01:37:37;;;;;;;11.45;5.47;;;15.90;95.00;;;;;;4935779;29;20035;-62
2022/08/23 01:40:04;;;;;;;11.48;5.85;;;15.90;95.00;;;;;;4935962;29;20032;-63
2022/08/23 01:42:30;;;;;;;11.43;5.57;;;15.90;95.10;;;;;;4936202;29;20473;-65
2022/08/23 01:44:56;;;;;;;8.52;5.70;;;15.90;95.20;;;;;;4934934;29;20027;-65
2022/08/23 01:47:22;;;;;;;10.85;5.63;;;15.90;95.30;;;;;;4937233;29;20030;-66
2022/08/23 01:49:48;;;;;;;10.00;6.07;;;15.90;95.40;;;;;;4936028;29;20035;-66
2022/08/23 01:52:14;;;;;;;7.72;5.40;;;15.90;95.40;;;;;;4936639;29;20293;-63
2022/08/23 01:54:40;;;;;;;9.95;5.63;;;15.90;95.30;;;;;;4937348;29;20032;-62
2022/08/23 01:57:06;;;;;;;7.07;5.43;;;15.90;95.40;;;;;;4930752;29;20016;-65
2022/08/23 01:59:33;;;;;;;9.10;5.70;;;15.90;95.40;;;;;;4932522;29;20069;-60
2022/08/23 02:01:59;;;;;;;9.95;5.75;;;15.80;95.60;;;;;;4935237;29;20075;-60
2022/08/23 02:04:26;;;;;;;8.93;6.20;;;15.80;95.70;;;;;;4935431;29;20035;-65
2022/08/23 02:06:52;;;;;;;7.55;5.45;;;15.80;95.70;;;;;;4936125;29;20028;-62
2022/08/23 02:09:17;;;;;;;10.38;5.53;;;15.80;95.70;;;;;;4935208;29;20032;-62
2022/08/23 02:11:44;;;;;;;7.47;5.80;;;15.80;95.70;;;;;;4934795;29;20063;-63
2022/08/23 02:14:13;;;;;;;8.00;5.47;;;15.80;95.70;;;;;;4934981;29;20028;-63
2022/08/23 02:16:45;;;;;;;8.32;5.50;;;15.80;95.70;;;;;;4935860;29;20079;-64
2022/08/23 02:19:13;;;;;;;7.32;5.80;;;15.80;95.60;;;;;;4935887;29;20040;-63
2022/08/23 02:21:40;;;;;;;8.95;5.45;;;15.70;95.60;;;;;;4934628;29;20059;-65
2022/08/23 02:24:11;;;;;;;10.63;5.40;;;15.60;95.60;;;;;;4935728;29;20476;-60
2022/08/23 02:26:44;;;;;;;8.25;6.03;;;15.60;95.70;;;;;;4934923;29;20039;-65
2022/08/23 02:29:11;;;;;;;11.15;6.18;;;15.60;95.80;;;;;;4935640;29;20102;-65
2022/08/23 02:31:36;;;;;;;9.38;5.38;;;15.60;95.90;;;;;;4934589;29;20032;-66
2022/08/23 02:34:04;;;;;;;8.40;6.55;;;15.50;95.90;;;;;;4933570;29;20211;-63
2022/08/23 02:36:31;;;;;;;8.98;6.05;;;15.50;96.00;;;;;;4933913;29;20024;-65
2022/08/23 02:38:57;;;;;;;11.35;6.53;;;15.50;96.10;;;;;;4936064;29;20034;-62
2022/08/23 02:41:23;;;;;;;9.02;6.05;;;15.50;96.10;;;;;;4934531;29;20036;-66
2022/08/23 02:43:52;;;;;;;7.60;5.47;;;15.50;96.10;;;;;;4934011;29;20023;-63
2022/08/23 02:46:20;;;;;;;11.23;5.72;;;15.50;96.20;;;;;;4935317;29;20421;-63
2022/08/23 02:48:45;;;;;;;11.40;6.50;;;15.40;96.20;;;;;;4933877;29;20144;-62
2022/08/23 02:51:11;;;;;;;8.77;6.55;;;15.40;96.30;;;;;;4934460;29;20560;-65
2022/08/23 02:53:37;;;;;;;11.90;6.63;;;15.30;96.20;;;;;;4935713;29;20484;-60
2022/08/23 02:56:03;;;;;;;10.48;6.45;;;15.30;96.30;;;;;;4948325;29;20389;-59
2022/08/23 02:58:29;;;;;;;8.30;5.95;;;15.30;96.30;;;;;;4933816;29;20028;-61
2022/08/23 03:00:55;;;;;;;9.50;6.20;;;15.30;96.40;;;;;;4934704;29;20035;-61
2022/08/23 03:03:21;;;;;;;8.10;6.20;;;15.30;96.40;;;;;;4935168;29;20023;-61
2022/08/23 03:05:47;;;;;;;7.15;5.82;;;15.20;96.40;;;;;;4934297;29;20038;-58
2022/08/23 03:08:13;;;;;;;9.25;6.32;;;15.20;96.50;;;;;;4934044;29;20023;-60
2022/08/23 03:10:47;;;;;;;10.23;6.43;;;15.20;96.50;;;;;;4933570;29;20043;-59
2022/08/23 03:13:13;;;;;;;8.82;6.40;;;15.20;96.60;;;;;;4934629;29;20476;-61
2022/08/23 03:15:39;;;;;;;9.98;5.95;;;15.10;96.60;;;;;;4933608;29;20030;-62
2022/08/23 03:18:07;;;;;;;7.88;5.47;;;15.00;96.60;;;;;;4932428;29;20024;-57
2022/08/23 03:20:33;;;;;;;9.50;5.45;;;15.00;96.60;;;;;;4929089;29;20042;-60
2022/08/23 03:22:58;;;;;;;11.55;7.13;;;14.90;97.00;;;;;;4933134;29;20028;-59
2022/08/23 03:25:24;;;;;;;10.85;6.55;;;14.80;96.90;;;;;;4933482;29;20400;-66
2022/08/23 03:27:50;;;;;;;11.00;6.68;;;14.70;97.00;;;;;;4935018;29;20030;-66
2022/08/23 03:30:15;;;;;;;8.82;6.40;;;14.70;97.40;;;;;;4933030;29;20035;-60
2022/08/23 03:32:41;;;;;;;9.15;6.60;;;14.60;97.50;;;;;;4930719;29;20650;-64
2022/08/23 03:35:07;;;;;;;9.10;6.43;;;14.60;97.60;;;;;;4934657;29;20027;-64
2022/08/23 03:37:33;;;;;;;9.02;6.43;;;14.60;97.60;;;;;;4932404;29;20024;-61
2022/08/23 03:39:58;;;;;;;9.57;6.72;;;14.60;97.60;;;;;;4932995;29;20039;-62
2022/08/23 03:42:24;;;;;;;9.48;6.93;;;14.70;97.50;;;;;;4933913;29;20124;-61
2022/08/23 03:44:50;;;;;;;9.50;6.40;;;14.70;97.30;;;;;;4933834;29;20115;-62
2022/08/23 03:47:16;;;;;;;9.77;6.88;;;14.70;97.20;;;;;;4932388;29;20027;-63
2022/08/23 03:49:41;;;;;;;12.43;6.43;;;14.70;97.20;;;;;;4934091;29;20521;-63
2022/08/23 03:52:07;;;;;;;9.55;6.38;;;14.70;97.10;;;;;;4932730;29;20095;-63
2022/08/23 03:54:33;;;;;;;10.32;6.85;;;14.80;97.10;;;;;;4933672;29;20028;-62
2022/08/23 03:57:01;;;;;;;9.68;6.35;;;14.80;97.10;;;;;;4934774;29;20024;-64
2022/08/23 03:59:29;;;;;;;11.60;6.38;;;14.80;97.10;;;;;;4933066;29;20040;-57
2022/08/23 04:01:55;;;;;;;9.60;6.18;;;14.70;97.00;;;;;;4933224;29;20032;-64
2022/08/23 04:04:21;;;;;;;11.43;6.25;;;14.80;97.10;;;;;;4934003;29;20035;-63
2022/08/23 04:06:47;;;;;;;7.38;5.80;;;14.80;97.00;;;;;;4933065;29;20814;-64
2022/08/23 04:09:14;;;;;;;8.10;5.80;;;14.80;97.00;;;;;;4933254;29;20031;-60
2022/08/23 04:11:41;;;;;;;8.65;6.18;;;14.80;97.00;;;;;;4932439;29;20023;-65
2022/08/23 04:14:06;;;;;;;8.98;5.93;;;14.70;97.00;;;;;;4922513;29;20028;-61
2022/08/23 04:16:36;;;;;;;10.15;6.68;;;14.80;97.10;;;;;;4932222;29;20043;-65
2022/08/23 04:19:07;;;;;;;12.10;7.38;;;14.70;97.10;;;;;;4933707;29;20323;-57
2022/08/23 04:21:35;;;;;;;7.82;5.90;;;14.70;97.10;;;;;;4934119;29;20031;-58
2022/08/23 04:24:00;;;;;;;9.55;6.43;;;14.70;97.10;;;;;;4934930;29;20112;-61
2022/08/23 04:26:26;;;;;;;10.35;5.47;;;14.70;97.10;;;;;;4933840;29;20102;-62
2022/08/23 04:28:52;;;;;;;11.30;6.07;;;14.70;97.10;;;;;;4934486;29;20079;-58
2022/08/23 04:31:19;;;;;;;8.15;5.63;;;14.60;97.10;;;;;;4934378;29;20083;-60
2022/08/23 04:33:45;;;;;;;10.10;6.72;;;14.70;97.20;;;;;;4933490;29;20051;-63
2022/08/23 04:36:11;;;;;;;9.77;6.22;;;14.60;97.20;;;;;;4934591;29;20465;-58
2022/08/23 04:38:36;;;;;;;9.23;6.55;;;14.60;97.20;;;;;;4937805;29;20050;-62
2022/08/23 04:43:47;;;;;;;8.85;6.18;;;14.60;97.30;;;;;;4937983;29;20042;-58
2022/08/23 04:46:14;;;;;;;8.18;6.28;;;14.70;97.30;;;;;;4937536;29;20023;-65
2022/08/23 04:48:44;;;;;;;8.65;6.15;;;14.70;97.30;;;;;;4936395;29;20031;-61
2022/08/23 04:51:11;;;;;;;9.50;5.97;;;14.80;97.60;;;;;;4934132;29;20027;-58
2022/08/23 04:53:37;;;;;;;9.90;6.25;;;14.80;97.20;;;;;;4949421;29;20487;-58
2022/08/23 04:56:04;;;;;;;9.50;6.63;;;14.90;97.10;;;;;;4941107;29;20031;-59
2022/08/23 04:58:31;;;;;;;8.50;5.90;;;15.00;97.00;;;;;;4944828;29;20034;-61
2022/08/23 05:00:59;;;;;;;9.27;6.53;;;15.00;96.90;;;;;;4947480;29;20035;-60
2022/08/23 05:03:26;;;;;;;9.80;6.32;;;15.20;96.80;;;;;;4938363;29;20055;-57
2022/08/23 05:05:52;;;;;;;8.27;6.28;;;15.30;96.80;;;;;;4936580;29;20496;-60
2022/08/23 05:08:18;;;;;;;7.63;5.88;;;15.30;96.70;;;;;;4937862;28;20381;-62
2022/08/23 05:10:44;;;;;;;8.48;6.43;;;15.40;96.60;;;;;;4937877;29;20024;-61
2022/08/23 05:13:09;;;;;;;10.25;6.10;;;15.50;96.80;;;;;;4936966;29;20367;-63
2022/08/23 05:15:35;;;;;;;9.40;6.18;;;15.60;96.50;;;;;;4936547;29;20053;-54
2022/08/23 05:18:01;;;;;;;8.52;6.50;;;15.70;96.50;;;;;;4937776;29;20032;-58
2022/08/23 05:20:26;;;;;;;7.47;5.95;;;15.70;96.40;;;;;;4936606;29;20079;-60
2022/08/23 05:22:53;;;;;;;10.93;5.75;;;15.80;96.40;;;;;;4936480;29;20022;-64
2022/08/23 05:25:19;;;;;;;10.68;6.55;;;15.90;96.40;;;;;;4938056;29;20360;-64
2022/08/23 05:27:46;;;;;;;8.45;6.57;;;15.90;96.30;;;;;;4937361;29;20020;-62
2022/08/23 05:30:11;;;;;;;9.95;6.68;;;15.90;96.30;;;;;;4935061;29;20036;-64
2022/08/23 05:32:37;;;;;;;9.85;6.70;;;15.90;96.30;;;;;;4934796;29;20540;-61
2022/08/23 05:35:04;;;;;;;8.27;5.55;;;16.00;96.30;;;;;;4934948;29;20496;-60
2022/08/23 05:37:29;;;;;;;7.85;6.00;;;16.00;96.20;;;;;;4935388;29;20020;-61
2022/08/23 05:39:55;;;;;;;8.77;6.13;;;16.10;96.30;;;;;;4936472;29;20087;-58
2022/08/23 05:42:21;;;;;;;10.52;6.40;;;16.10;96.30;;;;;;4936399;29;20027;-59
2022/08/23 05:44:48;;;;;;;7.43;6.05;;;16.20;96.40;;;;;;4934369;29;20373;-57
2022/08/23 05:47:15;;;;;;;9.35;7.05;;;16.30;96.30;;;;;;4936415;29;20047;-62
2022/08/23 05:49:41;;;;;;;7.88;6.20;;;16.30;96.20;;;;;;4935808;29;20028;-58
2022/08/23 05:52:11;;;;;;;9.27;5.82;;;16.40;96.20;;;;;;4935771;29;20031;-59
2022/08/23 05:54:38;;;;;;;8.75;5.55;;;16.50;96.10;;;;;;4935758;29;20038;-58
2022/08/23 05:57:03;;;;;;;8.13;5.72;;;16.60;96.00;;;;;;4933988;29;20038;-59
2022/08/23 05:59:29;;;;;;;7.65;5.43;;;16.60;95.90;;;;;;4938843;29;20408;-59
2022/08/23 06:01:56;;;;;;;9.93;6.38;;;16.70;95.80;;;;;;4935175;29;20036;-60
2022/08/23 06:04:22;;;;;;;12.27;8.25;;;16.80;95.70;;;;;;4934519;29;20100;-59
2022/08/23 06:06:48;;;;;;;11.32;6.90;;;17.00;95.80;;;;;;4935012;29;20048;-60
2022/08/23 06:09:16;;;;;;;10.48;7.85;;;17.10;95.60;;;;;;4935802;29;20067;-64
2022/08/23 06:11:44;;;;;;;8.98;6.43;;;17.30;95.40;;;;;;4949029;28;20016;-63
2022/08/23 06:14:11;;;;;;;11.32;6.72;;;17.50;95.20;;;;;;4935888;29;20118;-62
2022/08/23 06:16:40;;;;;;;9.45;6.78;;;17.70;94.90;;;;;;4935656;29;20116;-61
2022/08/23 06:19:07;;;;;;;9.90;7.28;;;17.80;94.70;;;;;;4934463;29;20527;-64
2022/08/23 06:21:34;;;;;;;10.05;7.68;;;18.00;94.40;;;;;;4935340;29;20408;-64
2022/08/23 06:24:00;;;;;;;11.40;8.43;;;18.10;94.30;;;;;;4935808;29;20035;-62
2022/08/23 06:26:30;;;;;;;11.98;9.15;;;18.20;94.20;;;;;;4934360;29;20031;-60
2022/08/23 06:28:57;;;;;;;9.95;7.25;;;18.30;94.20;;;;;;4935075;29;20031;-64
2022/08/23 06:31:44;;;;;;;10.43;7.70;;;18.40;94.10;;;;;;4931617;29;20417;-65
2022/08/23 06:34:23;;;;;;;10.38;8.18;;;18.50;94.00;;;;;;4935084;29;20081;-63
2022/08/23 06:36:55;;;;;;;12.50;7.40;;;18.70;93.90;;;;;;4935102;29;20038;-61
2022/08/23 06:39:24;;;;;;;10.85;8.02;;;18.70;93.80;;;;;;4934553;29;20126;-61
2022/08/23 06:41:50;;;;;;;11.90;9.35;;;18.80;93.80;;;;;;4918767;29;20020;-60
2022/08/23 06:44:18;;;;;;;10.00;8.18;;;18.80;93.80;;;;;;4935413;29;20032;-64
2022/08/23 06:46:46;;;;;;;14.75;10.60;;;18.80;93.80;;;;;;4934398;29;20019;-63
2022/08/23 06:49:12;;;;;;;15.07;11.23;;;18.90;93.90;;;;;;4932993;29;20094;-59
2022/08/23 06:51:44;;;;;;;12.60;9.60;;;19.00;93.80;;;;;;4932322;29;20456;-60
2022/08/23 06:54:12;;;;;;;15.18;9.35;;;19.10;93.70;;;;;;4934904;29;20556;-65
2022/08/23 06:56:40;;;;;;;12.75;8.20;;;19.20;93.50;;;;;;4915457;29;20047;-61
2022/08/23 06:59:06;;;;;;;11.18;8.52;;;19.30;93.20;;;;;;4933150;29;20111;-66
2022/08/23 07:01:42;;;;;;;14.63;10.50;;;19.40;93.10;;;;;;4933801;29;20028;-65
2022/08/23 07:04:10;;;;;;;13.80;9.57;;;19.60;92.70;;;;;;4935908;29;20028;-65
2022/08/23 07:06:37;;;;;;;13.85;9.45;;;19.70;92.50;;;;;;4934611;29;20019;-63
2022/08/23 07:09:04;;;;;;;14.98;10.32;;;19.90;92.10;;;;;;4935727;29;20024;-66
2022/08/23 07:11:31;;;;;;;11.32;9.35;;;20.00;91.90;;;;;;4935221;29;20039;-64
2022/08/23 07:13:59;;;;;;;15.15;10.73;;;20.10;91.70;;;;;;4935250;29;20028;-67
2022/08/23 07:16:31;;;;;;;15.30;11.02;;;20.20;91.50;;;;;;4935616;29;20032;-64
2022/08/23 07:18:57;;;;;;;12.57;9.68;;;20.30;91.20;;;;;;4935811;29;20031;-62
2022/08/23 07:21:23;;;;;;;9.68;7.70;;;20.30;91.10;;;;;;4934800;29;20532;-63
2022/08/23 07:23:49;;;;;;;14.27;8.75;;;20.30;90.90;;;;;;4935434;29;20027;-65
2022/08/23 07:26:16;;;;;;;12.40;8.57;;;20.30;90.90;;;;;;4935413;29;20032;-67
2022/08/23 07:28:42;;;;;;;11.20;8.40;;;20.40;90.90;;;;;;4934546;29;20439;-67
2022/08/23 07:31:18;;;;;;;11.82;8.15;;;20.40;90.80;;;;;;4935510;29;20461;-60
2022/08/23 07:33:44;;;;;;;15.57;9.82;;;20.40;90.70;;;;;;4934228;29;20055;-65
2022/08/23 07:36:15;;;;;;;11.80;8.98;;;20.50;90.70;;;;;;4935299;29;20023;-64
2022/08/23 07:38:42;;;;;;;14.50;10.23;;;20.60;90.50;;;;;;4934943;29;20106;-64
2022/08/23 07:41:08;;;;;;;12.45;8.35;;;20.70;90.10;;;;;;4934639;29;20059;-64
2022/08/23 07:43:34;;;;;;;11.90;7.78;;;20.70;89.50;;;;;;4934806;29;20122;-65
2022/08/23 07:46:00;;;;;;;12.77;8.45;;;20.90;89.00;;;;;;4935044;29;20035;-63
2022/08/23 07:48:27;;;;;;;11.90;8.63;;;21.00;88.30;;;;;;4934565;29;20114;-64
2022/08/23 07:50:56;;;;;;;12.13;8.40;;;21.10;88.10;;;;;;4949653;29;20095;-64
2022/08/23 07:53:23;;;;;;;12.27;7.47;;;21.20;87.80;;;;;;4935213;29;20042;-60
2022/08/23 07:55:49;;;;;;;12.40;7.95;;;21.20;87.50;;;;;;4949001;29;20034;-60
2022/08/23 07:58:15;;;;;;;13.10;7.68;;;21.30;87.10;;;;;;4935118;29;20390;-63
2022/08/23 08:00:41;;;;;;;8.45;6.88;;;21.40;86.80;;;;;;4934491;29;20035;-62
2022/08/23 08:03:08;;;;;;;13.00;7.28;;;21.50;86.40;;;;;;4934200;29;20156;-63
2022/08/23 08:05:33;;;;;;;10.43;6.97;;;21.70;86.00;;;;;;4934812;29;20024;-61
2022/08/23 08:08:00;;;;;;;12.50;8.18;;;21.80;86.00;;;;;;4934636;29;20491;-65
2022/08/23 08:10:26;;;;;;;10.68;6.57;;;21.90;84.90;;;;;;4934037;29;20079;-64
2022/08/23 08:12:51;;;;;;;10.18;6.53;;;22.10;84.10;;;;;;4934330;29;20031;-64
2022/08/23 08:15:17;;;;;;;9.70;6.38;;;22.30;82.70;;;;;;4934736;29;20028;-62
2022/08/23 08:17:46;;;;;;;8.45;5.90;;;22.50;82.30;;;;;;4933454;29;20445;-65
2022/08/23 08:20:12;;;;;;;11.98;6.15;;;22.60;81.70;;;;;;4934991;29;20094;-63
2022/08/23 08:22:37;;;;;;;12.45;6.40;;;22.70;80.30;;;;;;4934193;29;20028;-62
2022/08/23 08:25:03;;;;;;;13.02;6.15;;;22.80;79.90;;;;;;4934256;29;20421;-62
2022/08/23 08:27:29;;;;;;;12.88;8.23;;;22.90;79.50;;;;;;4934284;29;20012;-61
2022/08/23 08:29:54;;;;;;;7.68;5.75;;;23.10;77.30;;;;;;4933822;29;20035;-63
2022/08/23 08:32:20;;;;;;;9.45;5.40;;;23.20;77.50;;;;;;4934131;29;20039;-65
2022/08/23 08:34:45;;;;;;;8.45;5.25;;;23.30;77.00;;;;;;4933936;29;20039;-65
2022/08/23 08:37:11;;;;;;;7.28;5.05;;;23.40;76.90;;;;;;4933663;29;20074;-64
2022/08/23 08:39:44;;;;;;;8.32;4.93;;;23.50;76.40;;;;;;4933908;29;20473;-63
2022/08/23 08:42:22;;;;;;;7.88;5.28;;;23.60;76.00;;;;;;4934339;29;20032;-64
2022/08/23 08:44:55;;;;;;;9.65;5.25;;;23.60;75.40;;;;;;4933344;29;20030;-65
2022/08/23 08:47:36;;;;;;;7.30;4.90;;;23.70;74.90;;;;;;4934166;29;20035;-62
2022/08/23 08:50:07;;;;;;;10.75;4.93;;;23.80;74.60;;;;;;4934502;29;20028;-67
2022/08/23 08:52:39;;;;;;;10.65;5.32;;;23.90;74.40;;;;;;4933509;29;20102;-63
2022/08/23 08:55:10;;;;;;;8.77;4.53;;;24.00;73.90;;;;;;4934357;29;20028;-64
2022/08/23 08:57:43;;;;;;;8.43;4.80;;;24.10;73.20;;;;;;4934054;29;20031;-65
2022/08/23 09:00:14;;;;;;;8.25;5.05;;;24.20;72.80;;;;;;4933639;29;20543;-61
2022/08/23 09:02:41;;;;;;;8.02;4.63;;;24.30;72.60;;;;;;4933698;29;20024;-65
2022/08/23 09:05:15;;;;;;;8.10;4.43;;;24.40;72.00;;;;;;4933843;29;20160;-64
2022/08/23 09:07:56;;;;;;;9.80;4.53;;;24.50;71.60;;;;;;4933835;29;20024;-64
2022/08/23 09:10:36;;;;;;;8.93;4.25;;;24.70;71.30;;;;;;4934196;29;20060;-65
2022/08/23 09:13:27;;;;;;;9.90;4.15;;;24.80;70.50;;;;;;4933574;29;20032;-66
2022/08/23 09:16:11;;;;;;;10.45;3.97;;;24.90;69.60;;;;;;4934143;29;20031;-63
2022/08/23 09:18:36;;;;;;;6.50;3.78;;;25.10;68.50;;;;;;4933428;29;20028;-65
2022/08/23 09:21:06;;;;;;;7.38;3.15;;;25.20;68.20;;;;;;4933439;29;20446;-66
2022/08/23 09:23:35;;;;;;;6.82;3.78;;;25.20;67.40;;;;;;4935643;29;20032;-65
2022/08/23 09:26:03;;;;;;;7.57;3.63;;;25.30;67.30;;;;;;4937616;29;20034;-65
2022/08/23 09:28:32;;;;;;;7.90;3.90;;;25.30;67.90;;;;;;4936635;29;20525;-66
2022/08/23 09:30:59;;;;;;;5.70;2.95;;;25.40;66.70;;;;;;4937487;29;20027;-63
2022/08/23 09:33:39;;;;;;;5.57;3.30;;;25.40;66.60;;;;;;4936677;29;20040;-61
2022/08/23 09:36:21;;;;;;;4.88;2.67;;;25.40;66.10;;;;;;4937283;29;20027;-61
2022/08/23 09:38:56;;;;;;;6.43;2.40;;;25.50;65.70;;;;;;4937127;29;20059;-61
2022/08/23 09:41:35;;;;;;;4.03;2.40;;;25.50;65.30;;;;;;4936642;29;20059;-62
2022/08/23 09:44:02;;;;;;;3.70;2.22;;;25.60;64.50;;;;;;4937205;29;20465;-60
2022/08/23 09:46:34;;;;;;;3.97;2.55;;;25.60;64.10;;;;;;4936813;29;20173;-60
2022/08/23 09:49:22;;;;;;;3.53;1.83;;;25.60;63.50;;;;;;4936706;29;20036;-62
2022/08/23 09:51:49;;;;;;;6.30;2.30;;;25.70;62.40;;;;;;4951314;28;20019;-63
2022/08/23 09:54:26;;;;;;;3.38;1.80;;;25.70;61.30;;;;;;4936632;29;20468;-65
2022/08/23 09:56:56;;;;;;;5.65;2.30;;;25.80;60.90;;;;;;4936730;29;20030;-62
2022/08/23 09:59:42;;;;;;;5.77;2.67;;;25.90;60.20;;;;;;4936631;29;20507;-63
2022/08/23 10:02:20;;;;;;;4.65;2.55;;;25.90;59.90;;;;;;4936232;29;20558;-63
2022/08/23 10:04:51;;;;;;;4.68;2.45;;;26.00;59.90;;;;;;4936353;29;20170;-60
2022/08/23 10:07:27;;;;;;;4.93;2.50;;;26.00;60.20;;;;;;4936434;29;20020;-61
2022/08/23 10:09:53;;;;;;;7.32;3.10;;;26.00;59.90;;;;;;4936099;29;20035;-64
2022/08/23 10:12:19;;;;;;;4.97;2.78;;;26.00;60.50;;;;;;4936439;29;20023;-61
2022/08/23 10:14:45;;;;;;;7.53;4.25;;;26.10;60.70;;;;;;4936355;29;20500;-64
2022/08/23 10:17:33;;;;;;;5.25;2.83;;;26.20;59.70;;;;;;4935871;29;20033;-66
2022/08/23 10:20:30;;;;;;;5.55;3.13;;;26.40;59.20;;;;;;4935023;29;20031;-61
2022/08/23 10:23:17;;;;;;;8.77;2.97;;;26.70;58.50;;;;;;4935853;29;20503;-61
2022/08/23 10:25:54;;;;;;;6.00;2.72;;;27.00;56.00;;;;;;4936007;29;20031;-64
2022/08/23 10:32:00;;;;;;;6.15;2.42;;;27.80;54.90;;;;;;4935476;29;20038;-64
2022/08/23 10:34:50;;;;;;;4.97;2.00;;;28.10;54.50;;;;;;4934985;29;20134;-63
2022/08/23 10:37:30;;;;;;;4.85;2.63;;;28.20;53.70;;;;;;4935470;29;20367;-63
2022/08/23 10:40:17;;;;;;;4.82;2.60;;;28.20;52.80;;;;;;4935999;29;20389;-63
2022/08/23 10:43:08;;;;;;;7.72;2.83;;;28.10;52.10;;;;;;4935612;29;20034;-62
2022/08/23 10:45:38;;;;;;;5.82;3.38;;;28.10;52.10;;;;;;4935117;29;20023;-67
2022/08/23 10:48:07;;;;;;;;;;;28.00;52.60;;;;;;4936551;29;20032;-64
2022/08/23 10:51:02;;;;;;;8.43;3.35;;;28.10;51.70;;;;;;4935112;29;19929;-62
2022/08/23 10:53:55;;;;;;;5.10;2.80;;;28.20;52.00;;;;;;4935577;29;20056;-61
2022/08/23 10:56:22;;;;;;;6.60;2.65;;;28.30;52.00;;;;;;4934522;29;20057;-66
2022/08/23 10:58:58;;;;;;;3.75;2.25;;;28.50;50.70;;;;;;4934787;29;20118;-63
2022/08/23 11:01:28;;;;;;;4.03;2.67;;;28.80;49.80;;;;;;4935724;29;20039;-66
2022/08/23 11:04:15;;;;;;;5.82;2.90;;;28.90;50.00;;;;;;4935738;29;20023;-64
2022/08/23 11:06:49;;;;;;;5.50;2.67;;;29.10;49.80;;;;;;4934653;29;20036;-64
2022/08/23 11:09:18;;;;;;;6.45;2.75;;;29.20;49.50;;;;;;4935502;29;20031;-66
2022/08/23 11:12:01;;;;;;;2.95;2.20;;;29.20;49.20;;;;;;4934541;29;20032;-64
2022/08/23 11:14:41;;;;;;;3.50;2.35;;;29.20;49.60;;;;;;4935113;29;20087;-66
2022/08/23 11:17:32;;;;;;;4.40;2.50;;;29.20;49.50;;;;;;4935467;29;20110;-66
2022/08/23 11:20:07;;;;;;;2.90;1.95;;;29.10;50.30;;;;;;4924445;29;20058;-67
2022/08/23 11:22:55;;;;;;;4.28;2.22;;;29.00;49.00;;;;;;4934976;29;20085;-67
2022/08/23 11:25:20;;;;;;;4.18;2.17;;;29.00;48.70;;;;;;4935406;29;20035;-66
2022/08/23 11:27:46;;;;;;;5.60;1.90;;;29.00;48.80;;;;;;4934258;29;20083;-67
2022/08/23 11:30:33;;;;;;;7.60;2.15;;;29.00;48.70;;;;;;4934990;29;20019;-67
2022/08/23 11:33:17;;;;;;;4.47;2.10;;;29.20;48.10;;;;;;4934294;29;20095;-67
2022/08/23 11:35:51;;;;;;;3.60;1.90;;;29.10;48.40;;;;;;4934746;29;20027;-66
2022/08/23 11:38:45;;;;;;;4.18;2.20;;;29.10;47.60;;;;;;4935204;29;20027;-67
2022/08/23 11:41:25;;;;;;;4.32;2.20;;;29.10;47.50;;;;;;4934377;29;20044;-62
2022/08/23 11:44:02;;;;;;;5.25;2.05;;;29.30;47.10;;;;;;4934567;29;20015;-60
2022/08/23 11:46:33;;;;;;;4.07;2.08;;;29.40;47.50;;;;;;4934233;29;20030;-65
2022/08/23 11:49:29;;;;;;;4.80;2.50;;;29.50;47.60;;;;;;4934232;29;20039;-64
2022/08/23 11:52:33;;;;;;;5.30;2.53;;;29.60;47.80;;;;;;4934874;29;20445;-65
2022/08/23 11:55:16;;;;;;;5.53;2.50;;;29.60;47.40;;;;;;4934353;29;20028;-66
2022/08/23 11:58:04;;;;;;;7.15;3.03;;;29.50;47.70;;;;;;4934517;29;20024;-63
2022/08/23 12:01:07;;;;;;;4.82;2.60;;;29.50;47.80;;;;;;4934373;29;20067;-64
2022/08/23 12:03:42;;;;;;;4.00;2.15;;;29.60;47.80;;;;;;4934270;29;20102;-64
2022/08/23 12:06:36;;;;;;;6.50;3.08;;;29.70;47.60;;;;;;4934783;29;20059;-61
2022/08/23 12:09:11;;;;;;;4.05;2.40;;;29.70;47.20;;;;;;4933880;29;20483;-64
2022/08/23 12:11:54;;;;;;;5.63;2.40;;;29.60;47.80;;;;;;4934258;29;20083;-65
2022/08/23 12:14:41;;;;;;;4.55;2.30;;;29.60;48.10;;;;;;4934572;29;20038;-66
2022/08/23 12:17:17;;;;;;;9.80;3.00;;;29.60;48.40;;;;;;4934115;29;20031;-62
2022/08/23 12:19:47;;;;;;;5.55;2.80;;;29.60;47.80;;;;;;4933946;29;20542;-64
2022/08/23 12:22:18;;;;;;;5.15;2.83;;;29.70;47.90;;;;;;4934179;29;20438;-64
2022/08/23 12:25:02;;;;;;;7.82;2.85;;;29.80;47.30;;;;;;4934210;29;20445;-64
2022/08/23 12:27:48;;;;;;;5.93;2.65;;;29.90;47.00;;;;;;4934303;29;20227;-63
2022/08/23 12:30:23;;;;;;;4.18;2.20;;;30.00;47.00;;;;;;4933811;29;20031;-62
2022/08/23 12:32:57;;;;;;;4.75;2.22;;;30.10;46.60;;;;;;4933520;29;20075;-66
2022/08/23 12:36:03;;;;;;;5.28;2.45;;;30.20;46.60;;;;;;4933635;29;20070;-65
2022/08/23 12:38:41;;;;;;;4.97;2.20;;;30.30;46.70;;;;;;4933219;29;20024;-65
2022/08/23 12:41:23;;;;;;;6.97;2.30;;;30.30;45.70;;;;;;4933374;29;20035;-66
2022/08/23 12:43:56;;;;;;;3.85;2.10;;;30.20;45.30;;;;;;4932731;29;20125;-67
2022/08/23 12:46:42;;;;;;;4.10;2.28;;;30.10;45.20;;;;;;4933423;29;20036;-68
2022/08/23 12:49:21;;;;;;;4.82;2.47;;;30.00;44.20;;;;;;4933561;29;20032;-63
2022/08/23 12:51:49;;;;;;;9.65;2.50;;;30.00;44.40;;;;;;4932455;29;20056;-63
2022/08/23 12:54:19;;;;;;;3.35;1.70;;;30.10;44.00;;;;;;4933517;29;20063;-66
2022/08/23 12:56:51;;;;;;;5.55;2.00;;;30.10;44.40;;;;;;4933362;29;20446;-66
2022/08/23 12:59:43;;;;;;;5.18;1.88;;;30.20;43.60;;;;;;4935573;29;20531;-67
2022/08/23 13:02:26;;;;;;;4.78;2.15;;;30.30;44.20;;;;;;4936514;29;20019;-67
2022/08/23 13:04:58;;;;;;;4.72;2.08;;;30.40;43.90;;;;;;4935874;29;20504;-67
2022/08/23 13:07:25;;;;;;;4.35;2.10;;;30.50;43.60;;;;;;4936801;29;20024;-68
2022/08/23 13:09:51;;;;;;;5.57;2.08;;;30.60;44.20;;;;;;4936245;29;20015;-65
2022/08/23 13:12:18;;;;;;;3.55;2.08;;;30.50;43.70;;;;;;4935688;29;20182;-66
2022/08/23 13:14:50;;;;;;;3.92;1.98;;;30.50;43.90;;;;;;4936148;29;20036;-66